Flight Track Log - Related Links

Times and Time Zones

All times are in EDT time to prevent confusion due to time zone crossing. See the N885WT flight status page for this flight to view local times or setup timezone preferences in your user account.

Time Position Orientation Groundspeed Altitude Reporting Facility
EDT Latitude Longitude Course Direction KTS MPH feet Rate Location/Type
Fri 12:26:06 AM 38.6833 -121.6000 152° Southeast 142 163 1,200  Level Northern Cal TRACON
Fri 12:27:06 AM 38.6333 -121.5667 152° Southeast 218 251 4,600 3,700 Climbing Northern Cal TRACON
Fri 12:28:06 AM 38.6000 -121.4833 117° Southeast 261 300 8,600 3,350 Climbing Northern Cal TRACON
Fri 12:29:06 AM 38.5500 -121.3833 123° Southeast 319 367 11,300 2,784 Climbing Northern Cal TRACON
Fri 12:30:11 AM 38.5019 -121.2717 119° Southeast 372 428 14,400 3,048 Climbing Oakland Center
Fri 12:31:12 AM 38.4475 -121.1475 119° Southeast 394 453 17,700 3,148 Climbing Oakland Center
Fri 12:32:13 AM 38.3775 -120.9992 121° Southeast 425 489 20,800 3,098 Climbing Oakland Center
Fri 12:33:14 AM 38.3136 -120.8608 120° Southeast 447 514 24,000 2,803 Climbing Oakland Center
Fri 12:34:15 AM 38.2478 -120.7186 120° Southeast 462 532 26,500 1,475 Climbing Oakland Center
Fri 12:35:16 AM 38.1519 -120.6022 136° Southeast 477 549 27,000 246 Climbing Oakland Center
Fri 12:36:17 AM 38.0539 -120.4947 139° Southeast 470 541 27,000 393 Level Oakland Center
Fri 12:37:18 AM 37.9669 -120.3683 131° Southeast 473 544 27,800 1,377 Climbing Oakland Center
Fri 12:38:19 AM 37.8739 -120.2436 133° Southeast 483 556 29,800 1,574 Climbing Oakland Center
Fri 12:39:20 AM 37.7572 -120.1500 148° Southeast 509 586 31,000 639 Climbing Oakland Center
Fri 12:40:21 AM 37.6297 -120.0883 159° South 491 565 31,100 1,426 Climbing Oakland Center
Fri 12:41:22 AM 37.5003 -120.0306 160° South 488 562 33,900 2,803 Climbing Oakland Center
Fri 12:42:23 AM 37.3761 -119.9714 159° South 477 549 36,800 2,508 Climbing Oakland Center
Fri 12:43:24 AM 37.2544 -119.9147 160° South 468 539 39,000 2,066 Climbing Oakland Center
Fri 12:44:25 AM 37.1347 -119.8583 159° South 461 531 41,000 984 Climbing Oakland Center
Fri 12:45:26 AM 36.9933 -119.7925 160° South 462 532 41,000  Level Oakland Center
Fri 12:46:28 AM 36.8667 -119.7328 159° South 481 554 41,000  Level Oakland Center
Fri 12:47:28 AM 36.7392 -119.6753 160° South 485 558 41,000  Level Oakland Center
Fri 12:48:29 AM 36.6069 -119.6131 159° South 503 579 41,000  Level Oakland Center
Fri 12:49:30 AM 36.4783 -119.5539 160° South 494 568 41,000  Level Oakland Center
Fri 12:50:31 AM 36.3514 -119.4958 160° South 488 562 41,000  Level Oakland Center
Fri 12:51:32 AM 36.2242 -119.4378 160° South 486 559 41,000  Level Oakland Center
Fri 12:52:33 AM 36.0961 -119.3794 160° South 488 562 41,000  Level Oakland Center
Fri 12:53:34 AM 35.9689 -119.3244 161° South 483 556 41,000  Level Oakland Center
Fri 12:54:35 AM 35.8428 -119.2678 160° South 479 551 41,000  Level Oakland Center
Fri 12:55:36 AM 35.7097 -119.2078 160° South 498 573 41,000  Level Oakland Center
Fri 12:56:37 AM 35.5817 -119.1514 160° South 490 564 41,000  Level Oakland Center
Fri 12:57:39 AM 35.4269 -119.0828 160° South 488 562 41,000  Level Los Angeles Center
Fri 12:58:41 AM 35.3003 -119.0256 160° South 484 557 41,000  Level Los Angeles Center
Fri 12:59:42 AM 35.1722 -118.9689 160° South 485 558 41,000  Level Los Angeles Center
Fri 01:00:43 AM 35.0422 -118.9114 160° South 491 565 41,000  Level Los Angeles Center
Fri 01:01:45 AM 34.9122 -118.8556 161° South 493 567 41,000  Level Los Angeles Center
Fri 01:02:46 AM 34.7722 -118.7947 160° South 494 568 41,000  Level Los Angeles Center
Fri 01:03:47 AM 34.6439 -118.7403 161° South 491 565 41,000  Level Los Angeles Center
Fri 01:04:48 AM 34.5222 -118.6639 153° Southeast 499 574 41,000 -738 Level Los Angeles Center
Fri 01:05:49 AM 34.4094 -118.5664 144° Southeast 497 572 39,500 -1,659 Descending Los Angeles Center
Fri 01:06:51 AM 34.2975 -118.4667 144° Southeast 500 575 37,600 -1,902 Descending Los Angeles Center
Fri 01:07:52 AM 34.1856 -118.3689 144° Southeast 495 570 35,600 -1,967 Descending Los Angeles Center
Fri 01:08:53 AM 34.0722 -118.2692 144° Southeast 501 577 33,600 -1,967 Descending Los Angeles Center
Fri 01:09:54 AM 33.9561 -118.1669 144° Southeast 508 585 31,600 -2,000 Descending Los Angeles Center
Fri 01:10:56 AM 33.8361 -118.0650 145° Southeast 516 594 29,500 -2,244 Descending Los Angeles Center
Fri 01:11:57 AM 33.7219 -117.9658 144° Southeast 494 568 27,000 -2,459 Descending Los Angeles Center
Fri 01:12:58 AM 33.6183 -117.8769 144° Southeast 460 529 24,500 -2,410 Descending Los Angeles Center
Fri 01:13:59 AM 33.5211 -117.7939 145° Southeast 435 501 22,100 -2,311 Descending Los Angeles Center
Fri 01:15:00 AM 33.4261 -117.7131 145° Southeast 423 487 19,800 -2,488 Descending Los Angeles Center
Fri 01:16:02 AM 33.3150 -117.6186 145° Southeast 411 473 17,000 -2,299 Descending Los Angeles Center
Fri 01:16:47 AM 33.2500 -117.5500 139° Southeast 398 458 15,700 -1,314 Descending Southern California TRACON
Fri 01:17:47 AM 33.1500 -117.4833 151° Southeast 384 442 14,700 -1,316 Descending Southern California TRACON
Fri 01:18:41 AM 33.0833 -117.4167 140° Southeast 377 434 13,200 -1,692 Descending Southern California TRACON
Fri 01:19:05 AM 33.0497 -117.3989 156° South 381 438 12,500 -1,818 Descending Los Angeles Center
Fri 01:19:47 AM 32.9833 -117.3500 148° Southeast 338 389 11,200 -1,563 Descending Southern California TRACON
Fri 01:20:41 AM 32.9333 -117.3000 140° Southeast 312 359 10,000 -1,357 Descending Southern California TRACON
Fri 01:21:42 AM 32.8500 -117.2500 153° Southeast 297 342 8,600 -1,295 Descending Southern California TRACON
Fri 01:22:09 AM 32.8331 -117.2267 131° Southeast 298 343 8,100 -1,773 Descending Los Angeles Center
Fri 01:23:10 AM 32.7947 -117.1350 116° Southeast 280 322 6,000 -1,742 Descending Los Angeles Center
Fri 01:23:42 AM 32.7833 -117.0833 105° East 256 295 5,400 -659 Descending Southern California TRACON
Fri 01:24:41 AM 32.7667 -117.0167 107° East 219 252 5,000 -600 Descending Southern California TRACON
Fri 01:25:42 AM 32.7333 -116.9667 128° Southeast 211 243 4,200 -1,043 Descending Southern California TRACON
Fri 01:26:36 AM 32.7000 -117.0000 220° Southwest 214 246 3,000 -905 Descending Southern California TRACON
Fri 01:27:48 AM 32.7000 -117.0667 270° West 165 190 2,300 -619 Descending Southern California TRACON
Fri 01:28:42 AM 32.7167 -117.1167 292° West 138 159 1,700 -667 Descending Southern California TRACON
Fri 01:29:18 AM 32.7194 -117.1303 284° West 146 168 1,300 -928 Descending Los Angeles Center
Fri 01:30:19 AM 32.7292 -117.1711 286° West 134 154 200 -1,082 Descending Los Angeles Center
Fri 01:32:00 AM 32.7333 -117.1833 235° Southwest  Level FlightAware Approximate

Login

Don't have an account? Register now (free) for customized features, flight alerts, and more!